createdAt,value
2019-03-06T15:21:01.285Z,4.50
2019-03-06T15:22:38.515Z,4.05
2019-03-06T15:24:11.519Z,5.22
2019-03-06T15:25:45.734Z,4.08
2019-03-06T15:27:20.330Z,3.33
2019-03-06T15:28:54.549Z,3.75
2019-03-06T15:30:28.819Z,3.10
2019-03-06T15:32:02.985Z,3.52
2019-03-06T15:33:37.783Z,15.98
2019-03-06T15:35:12.947Z,7.03
2019-03-06T15:36:47.441Z,3.70
2019-03-06T15:38:21.793Z,5.22
2019-03-06T15:39:58.150Z,4.30
2019-03-06T15:41:32.404Z,4.30
2019-03-06T15:43:08.581Z,3.70
2019-03-06T15:44:43.187Z,6.37
2019-03-06T15:46:17.823Z,7.05
2019-03-06T15:47:52.086Z,4.53
2019-03-06T15:49:26.358Z,3.20
2019-03-06T15:51:00.581Z,4.80
2019-03-06T15:52:35.161Z,4.35
2019-03-06T15:54:09.551Z,5.30
2019-03-06T15:55:43.761Z,6.42
2019-03-06T15:57:18.332Z,7.78
2019-03-06T15:58:55.842Z,9.00
2019-03-06T16:00:46.180Z,9.05
2019-03-06T16:02:16.420Z,8.10
2019-03-06T16:03:50.716Z,41.83
2019-03-06T16:05:26.950Z,7.45
2019-03-06T16:07:01.516Z,10.72
2019-03-06T16:08:35.801Z,27.22
2019-03-06T16:10:10.061Z,8.13
2019-03-06T16:11:44.580Z,8.25
2019-03-06T16:13:19.417Z,3.62
2019-03-06T16:14:53.703Z,5.55
2019-03-06T16:16:27.926Z,8.50
2019-03-06T16:18:09.321Z,9.25
2019-03-06T16:19:43.628Z,5.90
2019-03-06T16:21:18.301Z,8.53
2019-03-06T16:22:52.648Z,7.12
2019-03-06T16:24:27.186Z,11.12
2019-03-06T16:26:01.480Z,6.58
2019-03-06T16:27:35.817Z,6.58
2019-03-06T16:29:10.156Z,10.25
2019-03-06T16:30:45.142Z,16.67
2019-03-06T16:32:19.365Z,5.83
2019-03-06T16:33:54.050Z,9.10
2019-03-06T16:35:28.295Z,17.00
2019-03-06T16:37:02.899Z,6.65
2019-03-06T16:38:37.174Z,7.67
2019-03-06T16:40:23.264Z,5.35
2019-03-06T16:41:57.582Z,12.33
2019-03-06T16:43:32.201Z,10.53
2019-03-06T16:45:08.340Z,11.03
2019-03-06T16:46:42.624Z,8.58
2019-03-06T16:48:16.883Z,14.55
2019-03-06T16:49:51.801Z,16.40
2019-03-06T16:51:26.022Z,7.37
2019-03-06T16:53:00.318Z,10.45
2019-03-06T16:54:34.563Z,10.88
2019-03-06T16:56:09.060Z,11.45
2019-03-06T16:57:43.384Z,11.28
2019-03-06T16:59:17.710Z,10.48
2019-03-06T17:00:53.121Z,13.80
2019-03-06T17:02:28.288Z,12.80
2019-03-06T17:04:02.569Z,8.28
2019-03-06T17:05:36.831Z,6.83
2019-03-06T17:07:11.030Z,8.85
2019-03-06T17:08:45.999Z,4.62
2019-03-06T17:10:24.967Z,7.15
2019-03-06T17:11:59.224Z,5.62
2019-03-06T17:13:33.423Z,8.78
2019-03-06T17:15:10.013Z,3.95
2019-03-06T17:16:44.243Z,7.70
2019-03-06T17:18:18.671Z,8.98
2019-03-06T17:19:52.954Z,5.67
2019-03-06T17:21:27.365Z,10.65
2019-03-06T17:23:01.844Z,12.60
2019-03-06T17:24:36.302Z,14.43
2019-03-06T17:26:10.708Z,16.07
2019-03-06T17:27:45.720Z,9.98
2019-03-06T17:29:19.966Z,5.78
2019-03-06T17:30:54.261Z,5.70
2019-03-06T17:32:28.555Z,5.30
2019-03-06T17:34:03.920Z,7.05
2019-03-06T17:35:39.071Z,13.40
2019-03-06T17:37:13.378Z,10.20
2019-03-06T17:38:47.705Z,11.18
2019-03-06T17:40:22.978Z,17.62
2019-03-06T17:41:57.292Z,14.07
2019-03-06T17:43:31.498Z,21.87
2019-03-06T17:45:06.259Z,46.60
2019-03-06T17:46:40.831Z,36.17
2019-03-06T17:48:15.429Z,32.38
2019-03-06T17:49:49.722Z,26.60
2019-03-06T17:51:23.991Z,14.30
2019-03-06T17:52:58.394Z,20.85
2019-03-06T17:54:32.697Z,19.80
2019-03-06T17:56:07.215Z,14.73
2019-03-06T17:57:41.639Z,19.35
2019-03-06T17:59:16.143Z,22.58
2019-03-06T18:00:52.405Z,18.35
2019-03-06T18:02:28.251Z,24.95
2019-03-06T18:04:04.155Z,21.82
2019-03-06T18:05:38.682Z,30.77
2019-03-06T18:07:12.918Z,30.10
2019-03-06T18:08:47.316Z,30.37
2019-03-06T18:10:21.721Z,32.58
2019-03-06T18:11:56.245Z,41.50
2019-03-06T18:13:30.476Z,36.05
2019-03-06T18:15:07.846Z,37.75
2019-03-06T18:16:42.171Z,35.98
2019-03-06T18:18:16.682Z,29.80
2019-03-06T18:19:51.065Z,29.00
2019-03-06T18:21:25.899Z,29.87
2019-03-06T18:23:00.207Z,26.33
2019-03-06T18:24:34.649Z,28.52
2019-03-06T18:26:08.657Z,28.98
2019-03-06T18:27:43.244Z,27.75
2019-03-06T18:29:17.500Z,27.07
2019-03-06T18:30:52.433Z,31.60
2019-03-06T18:32:26.653Z,40.23
2019-03-06T18:34:00.930Z,34.60
2019-03-06T18:35:35.231Z,41.23
2019-03-06T18:37:09.951Z,67.70
2019-03-06T18:38:44.452Z,46.25
2019-03-06T18:40:20.373Z,36.75
2019-03-06T18:41:54.389Z,42.77
2019-03-06T18:43:28.276Z,71.67
2019-03-06T18:45:02.641Z,53.20
2019-03-06T18:46:39.614Z,36.73
2019-03-06T18:48:13.860Z,31.50
2019-03-06T18:49:48.423Z,22.07
2019-03-06T18:51:22.834Z,22.30
2019-03-06T18:52:59.096Z,21.35
2019-03-06T18:54:33.054Z,29.35
2019-03-06T18:56:07.613Z,21.40
2019-03-06T18:57:41.304Z,14.77
2019-03-06T18:59:15.632Z,18.67
2019-03-06T19:00:49.963Z,10.30
2019-03-06T19:02:24.554Z,14.73
2019-03-06T19:03:59.344Z,30.88
2019-03-06T19:05:33.028Z,27.90
2019-03-06T19:07:07.250Z,61.30
2019-03-06T19:08:41.695Z,69.12
2019-03-06T19:10:22.670Z,69.85
2019-03-06T19:11:57.323Z,73.22
2019-03-06T19:13:31.046Z,89.17
2019-03-06T19:15:08.573Z,44.90
2019-03-06T19:16:42.892Z,46.30
2019-03-06T19:18:16.585Z,41.47
2019-03-06T19:19:50.884Z,31.55
2019-03-06T19:21:25.389Z,38.38
2019-03-06T19:22:59.047Z,31.40
2019-03-06T19:24:33.254Z,31.68
2019-03-06T19:26:07.551Z,42.80
2019-03-06T19:27:42.268Z,45.60
2019-03-06T19:29:15.912Z,48.87
2019-03-06T19:30:50.193Z,47.17
2019-03-06T19:32:23.823Z,48.80
2019-03-06T19:33:58.672Z,48.90
2019-03-06T19:35:32.420Z,41.07
2019-03-06T19:37:06.158Z,41.70
2019-03-06T19:38:40.463Z,37.93
2019-03-06T19:40:16.712Z,25.15
2019-03-06T19:41:51.286Z,12.10
2019-03-06T19:43:27.819Z,11.48
2019-03-06T19:45:02.163Z,11.22
2019-03-06T19:46:36.751Z,15.50
2019-03-06T19:48:10.405Z,16.97
2019-03-06T19:49:44.050Z,14.40
2019-03-06T19:51:17.751Z,24.40
2019-03-06T19:52:51.594Z,23.37
2019-03-06T19:54:25.460Z,23.13
2019-03-06T19:55:59.749Z,20.80
2019-03-06T19:57:42.482Z,21.23
2019-03-06T19:59:16.619Z,25.13
2019-03-06T20:00:50.261Z,22.80
2019-03-06T20:02:23.904Z,15.47
2019-03-06T20:03:57.617Z,17.57
2019-03-06T20:05:34.724Z,15.93
2019-03-06T20:07:09.222Z,16.90
2019-03-06T20:08:42.909Z,17.33
2019-03-06T20:10:16.844Z,17.80
2019-03-06T20:11:50.936Z,14.65
2019-03-06T20:13:24.552Z,10.97
2019-03-06T20:14:58.318Z,8.80
2019-03-06T20:16:32.002Z,9.67
2019-03-06T20:18:06.222Z,8.43
2019-03-06T20:19:39.974Z,8.83
2019-03-06T20:21:13.610Z,8.17
2019-03-06T20:22:48.224Z,9.73
2019-03-06T20:24:22.660Z,11.25
2019-03-06T20:25:56.339Z,11.65
2019-03-06T20:27:30.100Z,10.87
2019-03-06T20:29:03.902Z,11.83
2019-03-06T20:30:37.829Z,9.87
2019-03-06T20:32:11.454Z,7.90
2019-03-06T20:33:45.221Z,10.63
2019-03-06T20:35:24.002Z,11.30
2019-03-06T20:36:57.797Z,13.43
2019-03-06T20:38:31.463Z,10.70
2019-03-06T20:40:10.791Z,10.07
2019-03-06T20:41:44.468Z,10.27
2019-03-06T20:43:18.711Z,13.57
2019-03-06T20:44:52.413Z,18.57
2019-03-06T20:46:26.133Z,12.87
2019-03-06T20:47:59.863Z,15.43
2019-03-06T20:49:33.762Z,19.10
2019-03-06T20:51:08.462Z,17.73
2019-03-06T20:52:42.494Z,15.23
2019-03-06T20:54:16.469Z,7.63
2019-03-06T20:55:50.613Z,6.73
2019-03-06T20:57:24.229Z,6.80
2019-03-06T20:58:58.581Z,7.37
2019-03-06T21:00:33.881Z,6.57
2019-03-06T21:02:07.962Z,7.40
2019-03-06T21:03:41.570Z,7.27
2019-03-06T21:05:15.369Z,7.57
2019-03-06T21:06:49.083Z,6.30
2019-03-06T21:08:23.052Z,6.80
2019-03-06T21:09:56.743Z,8.10
2019-03-06T21:11:30.431Z,7.27
2019-03-06T21:13:04.114Z,9.77
2019-03-06T21:14:39.673Z,9.30
2019-03-06T21:16:13.386Z,10.37
2019-03-06T21:17:47.246Z,9.43
2019-03-06T21:19:20.999Z,9.63
2019-03-06T21:20:54.966Z,10.83
2019-03-06T21:22:28.611Z,12.97
2019-03-06T21:24:02.275Z,12.17
2019-03-06T21:25:36.037Z,10.30
2019-03-06T21:27:10.063Z,8.10
2019-03-06T21:28:43.757Z,7.47
2019-03-06T21:30:30.036Z,8.98
2019-03-06T21:32:03.732Z,11.00
2019-03-06T21:33:37.953Z,9.13
2019-03-06T21:35:11.761Z,12.37
2019-03-06T21:36:45.388Z,10.30
2019-03-06T21:38:19.176Z,7.33
2019-03-06T21:39:52.989Z,7.87
2019-03-06T21:41:26.626Z,7.90
2019-03-06T21:43:00.719Z,7.10
2019-03-06T21:44:34.392Z,6.93
2019-03-06T21:46:08.894Z,7.23
2019-03-06T21:47:42.685Z,8.40
2019-03-06T21:49:16.409Z,8.33
2019-03-06T21:50:50.095Z,8.17
2019-03-06T21:52:24.157Z,9.07
2019-03-06T21:53:57.868Z,10.23
2019-03-06T21:55:31.622Z,9.87
2019-03-06T21:57:05.271Z,8.60
2019-03-06T21:58:39.145Z,9.10
2019-03-06T22:00:18.601Z,7.77
2019-03-06T22:01:52.747Z,9.00
2019-03-06T22:03:26.460Z,7.13
2019-03-06T22:05:00.792Z,7.47
2019-03-06T22:06:34.510Z,10.87
2019-03-06T22:08:08.196Z,9.80
2019-03-06T22:09:41.859Z,10.37
2019-03-06T22:11:17.319Z,8.87
2019-03-06T22:12:50.960Z,8.37
2019-03-06T22:14:24.633Z,12.50
2019-03-06T22:15:58.326Z,13.23
2019-03-06T22:17:32.618Z,13.17
2019-03-06T22:19:06.336Z,14.77
2019-03-06T22:20:40.038Z,15.03
2019-03-06T22:22:14.017Z,12.97
2019-03-06T22:23:47.927Z,13.33
2019-03-06T22:25:21.585Z,11.50
2019-03-06T22:26:55.205Z,10.17
2019-03-06T22:28:29.447Z,9.95
2019-03-06T22:30:04.768Z,10.47
2019-03-06T22:31:38.473Z,10.13
2019-03-06T22:33:12.450Z,10.47
2019-03-06T22:34:46.440Z,9.13
2019-03-06T22:36:20.354Z,8.63
2019-03-06T22:37:53.973Z,7.07
2019-03-06T22:39:27.804Z,8.80
2019-03-06T22:41:01.437Z,7.10
2019-03-06T22:42:35.458Z,7.23
2019-03-06T22:44:09.080Z,6.03
2019-03-06T22:45:42.788Z,8.27
2019-03-06T22:47:16.516Z,7.63
2019-03-06T22:48:50.384Z,8.80
2019-03-06T22:50:25.474Z,9.17
2019-03-06T22:51:59.564Z,9.67
2019-03-06T22:53:35.625Z,16.47
2019-03-06T22:55:20.108Z,15.50
2019-03-06T22:56:53.743Z,14.97
2019-03-06T22:58:27.466Z,13.60
2019-03-06T23:00:01.215Z,14.97
2019-03-06T23:01:35.714Z,14.10
2019-03-06T23:03:09.434Z,13.80
2019-03-06T23:04:43.557Z,13.20
2019-03-06T23:06:17.317Z,11.00
2019-03-06T23:07:51.395Z,13.43
2019-03-06T23:09:25.163Z,37.40
2019-03-06T23:10:58.802Z,21.43
2019-03-06T23:12:32.653Z,14.37
2019-03-06T23:14:06.578Z,14.83
2019-03-06T23:15:40.874Z,10.35
2019-03-06T23:17:14.595Z,10.10
2019-03-06T23:18:48.303Z,7.43
2019-03-06T23:20:24.326Z,7.80
2019-03-06T23:21:59.756Z,5.45
2019-03-06T23:23:33.740Z,5.70
2019-03-06T23:25:07.586Z,6.70
2019-03-06T23:26:43.053Z,6.47
2019-03-06T23:28:16.814Z,6.83
2019-03-06T23:29:50.439Z,7.17
2019-03-06T23:31:24.061Z,7.20
2019-03-06T23:32:58.324Z,10.03
2019-03-06T23:34:32.031Z,10.33
2019-03-06T23:36:05.734Z,7.00
2019-03-06T23:37:39.555Z,7.57
2019-03-06T23:39:14.477Z,5.70
2019-03-06T23:40:48.109Z,6.13
2019-03-06T23:42:21.733Z,5.80
2019-03-06T23:43:55.359Z,9.33
2019-03-06T23:45:29.316Z,6.03
2019-03-06T23:47:03.014Z,7.10
2019-03-06T23:48:36.727Z,6.57
2019-03-06T23:50:14.263Z,7.27
2019-03-06T23:51:49.048Z,7.43
2019-03-06T23:53:23.029Z,7.40
2019-03-06T23:54:57.080Z,7.40
2019-03-06T23:56:30.772Z,7.00
2019-03-06T23:58:04.933Z,6.40
2019-03-06T23:59:38.669Z,6.87
